Disclaimer

Please do not use the information listed here in-flight or in-navigation, as they are not provided to us by the airports but are provided by volunteers, so they might be outdated.

Search


Regions


Airport information page

Radio informations:
Aerodrome flight information system (AFIS) - 118.1 MHz

Airport informations:
Latitude: 11° 46' 05.11" S
Longitude: 019° 53' 51.62" E
Elevation: 4360 feet - 1329 meters
Operating hours: From sunrise to sunset (SR-SS)
Operating agency: Civil government, landing fees and diplomatic clearance may be required
Timezone: UTC+1
Fuel: N/A

Runway information:
11/29 - 7875 x 130 feet< - >2400 x 40 meters

Recent METARs:
FNUE 160900Z 27008KT 9999 TS SCT030 FEW032CB 24/20 Q1021
FNUE 160900Z 27008KT 9999 TS SCT030 FEW032CB 24/20 Q1021
FNUE 161000Z 28006KT 9999 TS SCT020 BKN028 FEW031CB 23/20 Q1021

Airport on the map: